sensor_id;sensor_type;location;lat;lon;timestamp;P1;durP1;ratioP1;P2;durP2;ratioP2
38717;SDS011;24468;52.128;9.278;2023-02-04T00:01:54;23.58;;;4.28;;
38717;SDS011;24468;52.128;9.278;2023-02-04T00:04:20;23.23;;;5.90;;
38717;SDS011;24468;52.128;9.278;2023-02-04T00:06:46;24.38;;;4.72;;
38717;SDS011;24468;52.128;9.278;2023-02-04T00:09:11;22.30;;;5.47;;
38717;SDS011;24468;52.128;9.278;2023-02-04T00:11:37;24.40;;;6.18;;
38717;SDS011;24468;52.128;9.278;2023-02-04T00:14:02;24.30;;;4.00;;
38717;SDS011;24468;52.128;9.278;2023-02-04T00:16:28;25.55;;;5.60;;
38717;SDS011;24468;52.128;9.278;2023-02-04T00:18:53;32.05;;;5.90;;
38717;SDS011;24468;52.128;9.278;2023-02-04T00:21:19;21.02;;;4.68;;
38717;SDS011;24468;52.128;9.278;2023-02-04T00:23:44;30.35;;;5.53;;
38717;SDS011;24468;52.128;9.278;2023-02-04T00:26:10;33.30;;;4.95;;
38717;SDS011;24468;52.128;9.278;2023-02-04T00:28:36;28.23;;;6.30;;
38717;SDS011;24468;52.128;9.278;2023-02-04T00:31:01;30.15;;;4.95;;
38717;SDS011;24468;52.128;9.278;2023-02-04T00:33:27;29.30;;;4.93;;
38717;SDS011;24468;52.128;9.278;2023-02-04T00:35:53;25.17;;;6.60;;
38717;SDS011;24468;52.128;9.278;2023-02-04T00:38:18;23.60;;;5.93;;
38717;SDS011;24468;52.128;9.278;2023-02-04T00:40:44;21.13;;;4.15;;
38717;SDS011;24468;52.128;9.278;2023-02-04T00:43:09;24.35;;;5.32;;
38717;SDS011;24468;52.128;9.278;2023-02-04T00:45:35;33.88;;;5.97;;
38717;SDS011;24468;52.128;9.278;2023-02-04T00:48:00;27.52;;;6.55;;
38717;SDS011;24468;52.128;9.278;2023-02-04T00:50:26;22.27;;;5.00;;
38717;SDS011;24468;52.128;9.278;2023-02-04T00:52:52;22.33;;;4.13;;
38717;SDS011;24468;52.128;9.278;2023-02-04T00:55:17;17.08;;;3.60;;
38717;SDS011;24468;52.128;9.278;2023-02-04T00:57:44;17.00;;;4.20;;
38717;SDS011;24468;52.128;9.278;2023-02-04T01:00:11;20.70;;;4.90;;
38717;SDS011;24468;52.128;9.278;2023-02-04T01:02:39;14.48;;;4.47;;
38717;SDS011;24468;52.128;9.278;2023-02-04T01:05:05;16.73;;;4.30;;
38717;SDS011;24468;52.128;9.278;2023-02-04T01:07:32;14.73;;;3.15;;
38717;SDS011;24468;52.128;9.278;2023-02-04T01:09:58;15.48;;;3.80;;
38717;SDS011;24468;52.128;9.278;2023-02-04T01:12:24;14.32;;;3.75;;
38717;SDS011;24468;52.128;9.278;2023-02-04T01:14:51;17.80;;;3.58;;
38717;SDS011;24468;52.128;9.278;2023-02-04T01:17:18;15.73;;;3.13;;
38717;SDS011;24468;52.128;9.278;2023-02-04T01:19:45;23.13;;;5.15;;
38717;SDS011;24468;52.128;9.278;2023-02-04T01:22:11;16.45;;;4.45;;
38717;SDS011;24468;52.128;9.278;2023-02-04T01:24:37;18.70;;;3.35;;
38717;SDS011;24468;52.128;9.278;2023-02-04T01:27:03;17.95;;;3.50;;
38717;SDS011;24468;52.128;9.278;2023-02-04T01:29:28;15.80;;;3.50;;
38717;SDS011;24468;52.128;9.278;2023-02-04T01:31:54;16.15;;;3.70;;
38717;SDS011;24468;52.128;9.278;2023-02-04T01:34:19;14.48;;;2.58;;
38717;SDS011;24468;52.128;9.278;2023-02-04T01:36:45;20.35;;;2.95;;
38717;SDS011;24468;52.128;9.278;2023-02-04T01:39:10;18.50;;;3.65;;
38717;SDS011;24468;52.128;9.278;2023-02-04T01:41:36;23.38;;;3.90;;
38717;SDS011;24468;52.128;9.278;2023-02-04T01:44:01;16.70;;;3.72;;
38717;SDS011;24468;52.128;9.278;2023-02-04T01:46:27;23.85;;;4.57;;
38717;SDS011;24468;52.128;9.278;2023-02-04T01:48:53;19.88;;;3.40;;
38717;SDS011;24468;52.128;9.278;2023-02-04T01:51:21;21.17;;;5.25;;
38717;SDS011;24468;52.128;9.278;2023-02-04T01:53:52;33.17;;;4.95;;
38717;SDS011;24468;52.128;9.278;2023-02-04T01:56:20;13.43;;;3.00;;
38717;SDS011;24468;52.128;9.278;2023-02-04T01:58:49;18.83;;;3.47;;
38717;SDS011;24468;52.128;9.278;2023-02-04T02:01:31;22.58;;;3.75;;
38717;SDS011;24468;52.128;9.278;2023-02-04T02:04:05;20.00;;;3.75;;
38717;SDS011;24468;52.128;9.278;2023-02-04T02:06:32;21.52;;;4.18;;
38717;SDS011;24468;52.128;9.278;2023-02-04T02:08:59;15.32;;;3.08;;
38717;SDS011;24468;52.128;9.278;2023-02-04T02:11:26;15.75;;;3.70;;
38717;SDS011;24468;52.128;9.278;2023-02-04T02:13:52;15.20;;;3.00;;
38717;SDS011;24468;52.128;9.278;2023-02-04T02:16:18;18.70;;;5.97;;
38717;SDS011;24468;52.128;9.278;2023-02-04T02:18:43;11.77;;;3.30;;
38717;SDS011;24468;52.128;9.278;2023-02-04T02:21:09;18.13;;;3.08;;
38717;SDS011;24468;52.128;9.278;2023-02-04T02:26:09;18.73;;;4.15;;
38717;SDS011;24468;52.128;9.278;2023-02-04T02:28:35;16.40;;;4.97;;
38717;SDS011;24468;52.128;9.278;2023-02-04T02:31:00;20.10;;;3.30;;
38717;SDS011;24468;52.128;9.278;2023-02-04T02:33:26;16.67;;;3.30;;
38717;SDS011;24468;52.128;9.278;2023-02-04T02:35:51;12.65;;;2.85;;
38717;SDS011;24468;52.128;9.278;2023-02-04T02:38:17;12.38;;;2.78;;
38717;SDS011;24468;52.128;9.278;2023-02-04T02:40:44;11.00;;;2.65;;
38717;SDS011;24468;52.128;9.278;2023-02-04T02:43:14;13.18;;;2.58;;
38717;SDS011;24468;52.128;9.278;2023-02-04T02:45:43;6.25;;;2.13;;
38717;SDS011;24468;52.128;9.278;2023-02-04T02:48:10;20.38;;;3.08;;
38717;SDS011;24468;52.128;9.278;2023-02-04T02:50:36;12.13;;;2.90;;
38717;SDS011;24468;52.128;9.278;2023-02-04T02:53:02;13.52;;;2.85;;
38717;SDS011;24468;52.128;9.278;2023-02-04T02:55:30;17.70;;;2.42;;
38717;SDS011;24468;52.128;9.278;2023-02-04T02:57:56;10.75;;;2.15;;
38717;SDS011;24468;52.128;9.278;2023-02-04T03:00:25;13.80;;;1.80;;
38717;SDS011;24468;52.128;9.278;2023-02-04T03:02:56;7.60;;;1.50;;
38717;SDS011;24468;52.128;9.278;2023-02-04T03:05:40;9.27;;;2.38;;
38717;SDS011;24468;52.128;9.278;2023-02-04T03:08:08;9.13;;;1.88;;
38717;SDS011;24468;52.128;9.278;2023-02-04T03:10:36;11.48;;;2.00;;
38717;SDS011;24468;52.128;9.278;2023-02-04T03:13:02;10.68;;;2.13;;
38717;SDS011;24468;52.128;9.278;2023-02-04T03:15:29;10.35;;;2.20;;
38717;SDS011;24468;52.128;9.278;2023-02-04T03:17:55;7.85;;;1.95;;
38717;SDS011;24468;52.128;9.278;2023-02-04T03:20:23;9.75;;;2.00;;
38717;SDS011;24468;52.128;9.278;2023-02-04T03:22:51;12.55;;;1.98;;
38717;SDS011;24468;52.128;9.278;2023-02-04T03:25:18;12.15;;;2.25;;
38717;SDS011;24468;52.128;9.278;2023-02-04T03:27:44;9.02;;;2.08;;
38717;SDS011;24468;52.128;9.278;2023-02-04T03:30:11;8.32;;;1.80;;
38717;SDS011;24468;52.128;9.278;2023-02-04T03:32:37;8.73;;;1.40;;
38717;SDS011;24468;52.128;9.278;2023-02-04T03:35:02;5.47;;;2.10;;
38717;SDS011;24468;52.128;9.278;2023-02-04T03:37:28;9.13;;;2.55;;
38717;SDS011;24468;52.128;9.278;2023-02-04T03:39:54;12.00;;;2.83;;
38717;SDS011;24468;52.128;9.278;2023-02-04T03:42:19;8.10;;;2.47;;
38717;SDS011;24468;52.128;9.278;2023-02-04T03:44:45;14.15;;;2.15;;
38717;SDS011;24468;52.128;9.278;2023-02-04T03:47:10;9.40;;;1.85;;
38717;SDS011;24468;52.128;9.278;2023-02-04T03:49:36;13.70;;;2.90;;
38717;SDS011;24468;52.128;9.278;2023-02-04T03:52:02;9.05;;;2.03;;
38717;SDS011;24468;52.128;9.278;2023-02-04T03:54:29;6.80;;;1.63;;
38717;SDS011;24468;52.128;9.278;2023-02-04T03:56:55;9.18;;;2.47;;
38717;SDS011;24468;52.128;9.278;2023-02-04T03:59:20;7.07;;;2.20;;
38717;SDS011;24468;52.128;9.278;2023-02-04T04:01:46;11.32;;;2.03;;
38717;SDS011;24468;52.128;9.278;2023-02-04T04:04:12;8.15;;;1.40;;
38717;SDS011;24468;52.128;9.278;2023-02-04T04:06:37;5.40;;;1.33;;
38717;SDS011;24468;52.128;9.278;2023-02-04T04:09:03;5.32;;;1.80;;
38717;SDS011;24468;52.128;9.278;2023-02-04T04:11:29;4.65;;;1.65;;
38717;SDS011;24468;52.128;9.278;2023-02-04T04:13:55;5.00;;;1.58;;
38717;SDS011;24468;52.128;9.278;2023-02-04T04:16:20;7.10;;;1.50;;
38717;SDS011;24468;52.128;9.278;2023-02-04T04:18:46;6.43;;;2.03;;
38717;SDS011;24468;52.128;9.278;2023-02-04T04:21:11;7.45;;;1.98;;
38717;SDS011;24468;52.128;9.278;2023-02-04T04:23:37;5.13;;;2.08;;
38717;SDS011;24468;52.128;9.278;2023-02-04T04:26:02;6.68;;;1.23;;
38717;SDS011;24468;52.128;9.278;2023-02-04T04:28:28;7.47;;;2.42;;
38717;SDS011;24468;52.128;9.278;2023-02-04T04:30:54;2.63;;;1.70;;
38717;SDS011;24468;52.128;9.278;2023-02-04T04:33:19;5.63;;;1.73;;
38717;SDS011;24468;52.128;9.278;2023-02-04T04:35:45;6.22;;;2.35;;
38717;SDS011;24468;52.128;9.278;2023-02-04T04:38:10;4.38;;;1.55;;
38717;SDS011;24468;52.128;9.278;2023-02-04T04:40:36;4.88;;;1.30;;
38717;SDS011;24468;52.128;9.278;2023-02-04T04:43:02;9.02;;;2.85;;
38717;SDS011;24468;52.128;9.278;2023-02-04T04:45:27;4.90;;;1.63;;
38717;SDS011;24468;52.128;9.278;2023-02-04T04:47:53;7.40;;;2.00;;
38717;SDS011;24468;52.128;9.278;2023-02-04T04:50:19;7.57;;;1.40;;
38717;SDS011;24468;52.128;9.278;2023-02-04T04:52:44;8.15;;;1.90;;
38717;SDS011;24468;52.128;9.278;2023-02-04T04:55:10;4.28;;;2.00;;
38717;SDS011;24468;52.128;9.278;2023-02-04T04:57:35;6.13;;;1.70;;
38717;SDS011;24468;52.128;9.278;2023-02-04T05:00:02;8.73;;;1.70;;
38717;SDS011;24468;52.128;9.278;2023-02-04T05:02:30;10.07;;;2.20;;
38717;SDS011;24468;52.128;9.278;2023-02-04T05:04:55;4.97;;;1.75;;
38717;SDS011;24468;52.128;9.278;2023-02-04T05:07:21;6.53;;;1.33;;
38717;SDS011;24468;52.128;9.278;2023-02-04T05:09:46;5.68;;;1.52;;
38717;SDS011;24468;52.128;9.278;2023-02-04T05:12:12;3.42;;;0.90;;
38717;SDS011;24468;52.128;9.278;2023-02-04T05:14:37;6.28;;;1.40;;
38717;SDS011;24468;52.128;9.278;2023-02-04T05:17:03;4.30;;;1.52;;
38717;SDS011;24468;52.128;9.278;2023-02-04T05:19:28;6.28;;;1.63;;
38717;SDS011;24468;52.128;9.278;2023-02-04T05:21:54;4.05;;;2.08;;
38717;SDS011;24468;52.128;9.278;2023-02-04T05:24:21;5.13;;;1.50;;
38717;SDS011;24468;52.128;9.278;2023-02-04T05:26:47;2.88;;;1.40;;
38717;SDS011;24468;52.128;9.278;2023-02-04T05:29:12;5.85;;;1.52;;
38717;SDS011;24468;52.128;9.278;2023-02-04T05:31:38;4.60;;;1.42;;
38717;SDS011;24468;52.128;9.278;2023-02-04T05:34:03;4.32;;;1.17;;
38717;SDS011;24468;52.128;9.278;2023-02-04T05:36:29;3.80;;;1.23;;
38717;SDS011;24468;52.128;9.278;2023-02-04T05:38:54;3.15;;;1.15;;
38717;SDS011;24468;52.128;9.278;2023-02-04T05:41:20;3.70;;;1.10;;
38717;SDS011;24468;52.128;9.278;2023-02-04T05:43:45;2.42;;;1.20;;
38717;SDS011;24468;52.128;9.278;2023-02-04T05:46:11;3.10;;;0.95;;
38717;SDS011;24468;52.128;9.278;2023-02-04T05:48:36;1.70;;;1.15;;
38717;SDS011;24468;52.128;9.278;2023-02-04T05:51:04;3.35;;;0.88;;
38717;SDS011;24468;52.128;9.278;2023-02-04T05:53:29;4.00;;;0.70;;
38717;SDS011;24468;52.128;9.278;2023-02-04T05:55:55;2.65;;;1.02;;
38717;SDS011;24468;52.128;9.278;2023-02-04T05:58:21;2.55;;;0.95;;
38717;SDS011;24468;52.128;9.278;2023-02-04T06:00:46;1.85;;;1.02;;
38717;SDS011;24468;52.128;9.278;2023-02-04T06:03:12;2.63;;;0.75;;
38717;SDS011;24468;52.128;9.278;2023-02-04T06:05:38;2.50;;;1.08;;
38717;SDS011;24468;52.128;9.278;2023-02-04T06:08:04;4.30;;;1.52;;
38717;SDS011;24468;52.128;9.278;2023-02-04T06:10:30;1.73;;;1.05;;
38717;SDS011;24468;52.128;9.278;2023-02-04T06:12:55;3.13;;;1.90;;
38717;SDS011;24468;52.128;9.278;2023-02-04T06:15:21;4.25;;;2.70;;
38717;SDS011;24468;52.128;9.278;2023-02-04T06:17:46;3.47;;;1.23;;
38717;SDS011;24468;52.128;9.278;2023-02-04T06:20:12;2.47;;;1.17;;
38717;SDS011;24468;52.128;9.278;2023-02-04T06:22:39;2.85;;;1.00;;
38717;SDS011;24468;52.128;9.278;2023-02-04T06:25:05;1.52;;;0.90;;
38717;SDS011;24468;52.128;9.278;2023-02-04T06:27:31;1.50;;;0.73;;
38717;SDS011;24468;52.128;9.278;2023-02-04T06:29:56;5.75;;;4.00;;
38717;SDS011;24468;52.128;9.278;2023-02-04T06:32:22;3.60;;;3.40;;
38717;SDS011;24468;52.128;9.278;2023-02-04T06:34:48;3.15;;;2.85;;
38717;SDS011;24468;52.128;9.278;2023-02-04T06:37:13;3.25;;;2.42;;
38717;SDS011;24468;52.128;9.278;2023-02-04T06:39:41;3.60;;;2.63;;
38717;SDS011;24468;52.128;9.278;2023-02-04T06:42:07;3.97;;;3.28;;
38717;SDS011;24468;52.128;9.278;2023-02-04T06:44:33;4.88;;;3.38;;
38717;SDS011;24468;52.128;9.278;2023-02-04T06:46:59;5.25;;;2.10;;
38717;SDS011;24468;52.128;9.278;2023-02-04T06:49:24;2.40;;;1.90;;
38717;SDS011;24468;52.128;9.278;2023-02-04T06:51:50;2.88;;;1.70;;
38717;SDS011;24468;52.128;9.278;2023-02-04T06:54:16;2.47;;;1.30;;
38717;SDS011;24468;52.128;9.278;2023-02-04T06:56:42;1.10;;;1.00;;
38717;SDS011;24468;52.128;9.278;2023-02-04T06:59:08;2.47;;;1.85;;
38717;SDS011;24468;52.128;9.278;2023-02-04T07:01:34;4.25;;;2.67;;
38717;SDS011;24468;52.128;9.278;2023-02-04T07:04:00;3.00;;;2.42;;
38717;SDS011;24468;52.128;9.278;2023-02-04T07:06:26;3.42;;;2.90;;
38717;SDS011;24468;52.128;9.278;2023-02-04T07:08:51;3.47;;;1.95;;
38717;SDS011;24468;52.128;9.278;2023-02-04T07:11:17;3.00;;;1.83;;
38717;SDS011;24468;52.128;9.278;2023-02-04T07:13:43;2.88;;;1.85;;
38717;SDS011;24468;52.128;9.278;2023-02-04T07:16:08;3.47;;;2.42;;
38717;SDS011;24468;52.128;9.278;2023-02-04T07:18:34;1.83;;;1.50;;
38717;SDS011;24468;52.128;9.278;2023-02-04T07:20:59;2.22;;;1.33;;
38717;SDS011;24468;52.128;9.278;2023-02-04T07:23:25;3.22;;;1.77;;
38717;SDS011;24468;52.128;9.278;2023-02-04T07:25:52;2.85;;;2.05;;
38717;SDS011;24468;52.128;9.278;2023-02-04T07:28:18;1.17;;;0.90;;
38717;SDS011;24468;52.128;9.278;2023-02-04T07:30:44;3.50;;;1.35;;
38717;SDS011;24468;52.128;9.278;2023-02-04T07:33:10;2.55;;;1.50;;
38717;SDS011;24468;52.128;9.278;2023-02-04T07:35:36;1.52;;;1.00;;
38717;SDS011;24468;52.128;9.278;2023-02-04T07:38:04;1.35;;;1.17;;
38717;SDS011;24468;52.128;9.278;2023-02-04T07:40:30;10.25;;;2.75;;
38717;SDS011;24468;52.128;9.278;2023-02-04T07:42:56;15.90;;;9.63;;
38717;SDS011;24468;52.128;9.278;2023-02-04T07:45:21;18.90;;;10.57;;
38717;SDS011;24468;52.128;9.278;2023-02-04T07:47:47;14.35;;;8.45;;
38717;SDS011;24468;52.128;9.278;2023-02-04T07:50:13;8.38;;;5.15;;
38717;SDS011;24468;52.128;9.278;2023-02-04T07:52:40;5.65;;;3.97;;
38717;SDS011;24468;52.128;9.278;2023-02-04T07:55:06;33.10;;;16.80;;
38717;SDS011;24468;52.128;9.278;2023-02-04T07:57:33;21.77;;;10.75;;
38717;SDS011;24468;52.128;9.278;2023-02-04T07:59:58;12.00;;;6.55;;
38717;SDS011;24468;52.128;9.278;2023-02-04T08:02:24;19.98;;;12.80;;
38717;SDS011;24468;52.128;9.278;2023-02-04T08:04:50;21.02;;;15.10;;
38717;SDS011;24468;52.128;9.278;2023-02-04T08:07:16;10.90;;;7.22;;
38717;SDS011;24468;52.128;9.278;2023-02-04T08:09:42;5.32;;;3.80;;
38717;SDS011;24468;52.128;9.278;2023-02-04T08:12:07;7.85;;;3.30;;
38717;SDS011;24468;52.128;9.278;2023-02-04T08:14:33;6.40;;;3.35;;
38717;SDS011;24468;52.128;9.278;2023-02-04T08:16:58;9.30;;;5.57;;
38717;SDS011;24468;52.128;9.278;2023-02-04T08:19:24;7.13;;;4.88;;
38717;SDS011;24468;52.128;9.278;2023-02-04T08:21:50;9.80;;;5.78;;
38717;SDS011;24468;52.128;9.278;2023-02-04T08:24:15;7.63;;;4.88;;
38717;SDS011;24468;52.128;9.278;2023-02-04T08:26:42;3.97;;;3.33;;
38717;SDS011;24468;52.128;9.278;2023-02-04T08:29:08;5.00;;;1.98;;
38717;SDS011;24468;52.128;9.278;2023-02-04T08:31:33;2.30;;;1.70;;
38717;SDS011;24468;52.128;9.278;2023-02-04T08:34:01;17.38;;;7.25;;
38717;SDS011;24468;52.128;9.278;2023-02-04T08:36:29;5.13;;;2.65;;
38717;SDS011;24468;52.128;9.278;2023-02-04T08:38:55;4.78;;;2.58;;
38717;SDS011;24468;52.128;9.278;2023-02-04T08:41:20;1.83;;;1.50;;
38717;SDS011;24468;52.128;9.278;2023-02-04T08:43:46;4.47;;;3.10;;
38717;SDS011;24468;52.128;9.278;2023-02-04T08:46:11;5.32;;;1.90;;
38717;SDS011;24468;52.128;9.278;2023-02-04T08:48:37;3.60;;;2.10;;
38717;SDS011;24468;52.128;9.278;2023-02-04T08:51:02;4.25;;;2.50;;
38717;SDS011;24468;52.128;9.278;2023-02-04T08:53:28;10.98;;;7.07;;
38717;SDS011;24468;52.128;9.278;2023-02-04T08:55:54;10.25;;;5.80;;
38717;SDS011;24468;52.128;9.278;2023-02-04T08:58:19;8.65;;;4.60;;
38717;SDS011;24468;52.128;9.278;2023-02-04T09:00:45;3.10;;;2.17;;
38717;SDS011;24468;52.128;9.278;2023-02-04T09:03:10;3.45;;;2.42;;
38717;SDS011;24468;52.128;9.278;2023-02-04T09:05:36;6.20;;;3.00;;
38717;SDS011;24468;52.128;9.278;2023-02-04T09:08:01;6.43;;;3.58;;
38717;SDS011;24468;52.128;9.278;2023-02-04T09:10:27;13.65;;;6.18;;
38717;SDS011;24468;52.128;9.278;2023-02-04T09:12:52;5.20;;;2.90;;
38717;SDS011;24468;52.128;9.278;2023-02-04T09:15:20;5.18;;;4.00;;
38717;SDS011;24468;52.128;9.278;2023-02-04T09:17:49;3.75;;;1.75;;
38717;SDS011;24468;52.128;9.278;2023-02-04T09:20:18;2.58;;;1.77;;
38717;SDS011;24468;52.128;9.278;2023-02-04T09:22:44;5.60;;;3.28;;
38717;SDS011;24468;52.128;9.278;2023-02-04T09:25:11;5.65;;;4.50;;
38717;SDS011;24468;52.128;9.278;2023-02-04T09:27:37;6.38;;;4.45;;
38717;SDS011;24468;52.128;9.278;2023-02-04T09:30:03;6.13;;;4.47;;
38717;SDS011;24468;52.128;9.278;2023-02-04T09:32:29;7.40;;;4.32;;
38717;SDS011;24468;52.128;9.278;2023-02-04T09:34:55;3.78;;;2.67;;
38717;SDS011;24468;52.128;9.278;2023-02-04T09:37:20;4.68;;;3.03;;
38717;SDS011;24468;52.128;9.278;2023-02-04T09:39:46;2.53;;;1.95;;
38717;SDS011;24468;52.128;9.278;2023-02-04T09:42:14;3.55;;;1.80;;
38717;SDS011;24468;52.128;9.278;2023-02-04T09:44:40;2.55;;;1.10;;
38717;SDS011;24468;52.128;9.278;2023-02-04T09:47:10;2.53;;;1.48;;
38717;SDS011;24468;52.128;9.278;2023-02-04T09:49:39;3.50;;;1.80;;
38717;SDS011;24468;52.128;9.278;2023-02-04T09:52:11;5.93;;;3.38;;
38717;SDS011;24468;52.128;9.278;2023-02-04T09:54:40;1.70;;;1.30;;
38717;SDS011;24468;52.128;9.278;2023-02-04T09:57:13;2.90;;;1.80;;
38717;SDS011;24468;52.128;9.278;2023-02-04T09:59:43;3.08;;;1.65;;
38717;SDS011;24468;52.128;9.278;2023-02-04T10:02:30;6.05;;;1.80;;
38717;SDS011;24468;52.128;9.278;2023-02-04T10:04:56;3.10;;;2.80;;
38717;SDS011;24468;52.128;9.278;2023-02-04T10:07:22;6.18;;;2.20;;
38717;SDS011;24468;52.128;9.278;2023-02-04T10:09:50;2.10;;;1.50;;
38717;SDS011;24468;52.128;9.278;2023-02-04T10:12:18;4.07;;;1.42;;
38717;SDS011;24468;52.128;9.278;2023-02-04T10:14:44;1.27;;;1.02;;
38717;SDS011;24468;52.128;9.278;2023-02-04T10:17:10;2.78;;;1.65;;
38717;SDS011;24468;52.128;9.278;2023-02-04T10:19:41;1.97;;;1.70;;
38717;SDS011;24468;52.128;9.278;2023-02-04T10:22:14;3.38;;;1.75;;
38717;SDS011;24468;52.128;9.278;2023-02-04T10:24:43;3.83;;;1.92;;
38717;SDS011;24468;52.128;9.278;2023-02-04T10:27:10;1.98;;;1.38;;
38717;SDS011;24468;52.128;9.278;2023-02-04T10:29:37;2.00;;;0.80;;
38717;SDS011;24468;52.128;9.278;2023-02-04T10:32:04;1.77;;;1.00;;
38717;SDS011;24468;52.128;9.278;2023-02-04T10:34:48;2.03;;;1.13;;
38717;SDS011;24468;52.128;9.278;2023-02-04T10:37:20;3.17;;;1.40;;
38717;SDS011;24468;52.128;9.278;2023-02-04T10:39:46;1.75;;;1.13;;
38717;SDS011;24468;52.128;9.278;2023-02-04T10:42:22;2.65;;;1.45;;
38717;SDS011;24468;52.128;9.278;2023-02-04T10:44:51;7.28;;;3.67;;
38717;SDS011;24468;52.128;9.278;2023-02-04T10:47:18;2.15;;;1.75;;
38717;SDS011;24468;52.128;9.278;2023-02-04T10:49:50;2.90;;;1.88;;
38717;SDS011;24468;52.128;9.278;2023-02-04T10:52:23;4.05;;;1.77;;
38717;SDS011;24468;52.128;9.278;2023-02-04T10:55:04;2.95;;;1.42;;
38717;SDS011;24468;52.128;9.278;2023-02-04T10:57:37;6.20;;;4.07;;
38717;SDS011;24468;52.128;9.278;2023-02-04T11:00:05;4.25;;;3.40;;
38717;SDS011;24468;52.128;9.278;2023-02-04T11:02:44;3.33;;;1.55;;
38717;SDS011;24468;52.128;9.278;2023-02-04T11:05:34;2.00;;;1.40;;
38717;SDS011;24468;52.128;9.278;2023-02-04T11:08:01;2.53;;;1.10;;
38717;SDS011;24468;52.128;9.278;2023-02-04T11:10:42;1.75;;;0.82;;
38717;SDS011;24468;52.128;9.278;2023-02-04T11:13:18;2.60;;;0.80;;
38717;SDS011;24468;52.128;9.278;2023-02-04T11:15:48;5.10;;;1.67;;
38717;SDS011;24468;52.128;9.278;2023-02-04T11:21:39;2.80;;;1.08;;
38717;SDS011;24468;52.128;9.278;2023-02-04T11:26:38;2.42;;;1.27;;
38717;SDS011;24468;52.128;9.278;2023-02-04T11:29:08;1.65;;;1.15;;
38717;SDS011;24468;52.128;9.278;2023-02-04T11:31:44;1.42;;;1.15;;
38717;SDS011;24468;52.128;9.278;2023-02-04T11:45:42;5.35;;;3.55;;
38717;SDS011;24468;52.128;9.278;2023-02-04T11:48:12;10.68;;;6.82;;
38717;SDS011;24468;52.128;9.278;2023-02-04T11:50:41;1.50;;;1.40;;
38717;SDS011;24468;52.128;9.278;2023-02-04T11:53:09;3.03;;;2.22;;
38717;SDS011;24468;52.128;9.278;2023-02-04T11:55:41;3.60;;;2.67;;
38717;SDS011;24468;52.128;9.278;2023-02-04T11:58:14;3.45;;;1.90;;
38717;SDS011;24468;52.128;9.278;2023-02-04T12:00:42;4.63;;;1.60;;
38717;SDS011;24468;52.128;9.278;2023-02-04T12:03:22;7.32;;;2.72;;
38717;SDS011;24468;52.128;9.278;2023-02-04T12:05:58;3.25;;;1.55;;
38717;SDS011;24468;52.128;9.278;2023-02-04T12:08:25;3.25;;;1.70;;
38717;SDS011;24468;52.128;9.278;2023-02-04T12:11:06;1.40;;;1.00;;
38717;SDS011;24468;52.128;9.278;2023-02-04T12:13:50;2.00;;;1.00;;
38717;SDS011;24468;52.128;9.278;2023-02-04T12:16:20;1.02;;;0.98;;
38717;SDS011;24468;52.128;9.278;2023-02-04T12:18:46;2.95;;;1.25;;
38717;SDS011;24468;52.128;9.278;2023-02-04T12:21:11;5.80;;;4.22;;
38717;SDS011;24468;52.128;9.278;2023-02-04T12:23:38;2.80;;;2.05;;
38717;SDS011;24468;52.128;9.278;2023-02-04T12:26:06;4.57;;;2.90;;
38717;SDS011;24468;52.128;9.278;2023-02-04T12:28:32;2.72;;;1.08;;
38717;SDS011;24468;52.128;9.278;2023-02-04T12:30:58;1.92;;;1.50;;
38717;SDS011;24468;52.128;9.278;2023-02-04T12:33:24;3.42;;;3.08;;
38717;SDS011;24468;52.128;9.278;2023-02-04T12:35:50;2.47;;;1.13;;
38717;SDS011;24468;52.128;9.278;2023-02-04T12:38:16;1.80;;;1.45;;
38717;SDS011;24468;52.128;9.278;2023-02-04T12:40:43;3.20;;;1.33;;
38717;SDS011;24468;52.128;9.278;2023-02-04T12:43:08;4.18;;;1.58;;
38717;SDS011;24468;52.128;9.278;2023-02-04T12:45:34;2.50;;;1.20;;
38717;SDS011;24468;52.128;9.278;2023-02-04T12:48:00;2.97;;;0.85;;
38717;SDS011;24468;52.128;9.278;2023-02-04T12:50:25;4.45;;;2.10;;
38717;SDS011;24468;52.128;9.278;2023-02-04T12:52:51;1.55;;;0.77;;
38717;SDS011;24468;52.128;9.278;2023-02-04T12:55:23;1.35;;;0.60;;
38717;SDS011;24468;52.128;9.278;2023-02-04T12:57:50;1.80;;;1.30;;
38717;SDS011;24468;52.128;9.278;2023-02-04T13:00:16;1.42;;;1.00;;
38717;SDS011;24468;52.128;9.278;2023-02-04T13:02:43;1.75;;;1.13;;
38717;SDS011;24468;52.128;9.278;2023-02-04T13:05:09;2.95;;;1.50;;
38717;SDS011;24468;52.128;9.278;2023-02-04T13:07:35;1.63;;;0.77;;
38717;SDS011;24468;52.128;9.278;2023-02-04T13:10:02;3.03;;;1.30;;
38717;SDS011;24468;52.128;9.278;2023-02-04T13:12:28;4.32;;;1.35;;
38717;SDS011;24468;52.128;9.278;2023-02-04T13:14:54;2.10;;;0.98;;
38717;SDS011;24468;52.128;9.278;2023-02-04T13:17:19;1.15;;;1.05;;
38717;SDS011;24468;52.128;9.278;2023-02-04T13:19:45;1.40;;;1.30;;
38717;SDS011;24468;52.128;9.278;2023-02-04T13:22:11;1.70;;;0.90;;
38717;SDS011;24468;52.128;9.278;2023-02-04T13:24:36;2.22;;;2.03;;
38717;SDS011;24468;52.128;9.278;2023-02-04T13:27:02;3.85;;;1.65;;
38717;SDS011;24468;52.128;9.278;2023-02-04T13:29:28;5.65;;;3.70;;
38717;SDS011;24468;52.128;9.278;2023-02-04T13:31:53;5.88;;;3.83;;
38717;SDS011;24468;52.128;9.278;2023-02-04T13:34:19;1.33;;;1.10;;
38717;SDS011;24468;52.128;9.278;2023-02-04T13:36:44;6.05;;;3.38;;
38717;SDS011;24468;52.128;9.278;2023-02-04T13:39:10;12.48;;;8.27;;
38717;SDS011;24468;52.128;9.278;2023-02-04T13:41:36;10.30;;;6.55;;
38717;SDS011;24468;52.128;9.278;2023-02-04T13:44:02;3.90;;;2.55;;
38717;SDS011;24468;52.128;9.278;2023-02-04T13:46:29;2.85;;;2.60;;
38717;SDS011;24468;52.128;9.278;2023-02-04T13:48:54;2.00;;;1.45;;
38717;SDS011;24468;52.128;9.278;2023-02-04T13:51:20;3.25;;;1.77;;
38717;SDS011;24468;52.128;9.278;2023-02-04T13:53:46;3.47;;;1.70;;
38717;SDS011;24468;52.128;9.278;2023-02-04T13:56:11;1.02;;;0.80;;
38717;SDS011;24468;52.128;9.278;2023-02-04T13:58:37;3.08;;;2.17;;
38717;SDS011;24468;52.128;9.278;2023-02-04T14:01:07;1.58;;;0.82;;
38717;SDS011;24468;52.128;9.278;2023-02-04T14:03:34;2.60;;;0.98;;
38717;SDS011;24468;52.128;9.278;2023-02-04T14:05:59;0.85;;;0.77;;
38717;SDS011;24468;52.128;9.278;2023-02-04T14:08:25;2.35;;;0.75;;
38717;SDS011;24468;52.128;9.278;2023-02-04T14:10:50;1.67;;;0.88;;
38717;SDS011;24468;52.128;9.278;2023-02-04T14:13:16;2.15;;;1.08;;
38717;SDS011;24468;52.128;9.278;2023-02-04T14:15:41;1.75;;;0.98;;
38717;SDS011;24468;52.128;9.278;2023-02-04T14:18:07;1.10;;;0.70;;
38717;SDS011;24468;52.128;9.278;2023-02-04T14:20:34;0.82;;;0.75;;
38717;SDS011;24468;52.128;9.278;2023-02-04T14:23:00;0.90;;;0.70;;
38717;SDS011;24468;52.128;9.278;2023-02-04T14:25:26;2.53;;;1.55;;
38717;SDS011;24468;52.128;9.278;2023-02-04T14:27:52;2.95;;;1.80;;
38717;SDS011;24468;52.128;9.278;2023-02-04T14:30:19;7.25;;;4.28;;
38717;SDS011;24468;52.128;9.278;2023-02-04T14:32:48;10.32;;;4.95;;
38717;SDS011;24468;52.128;9.278;2023-02-04T14:35:13;6.40;;;3.78;;
38717;SDS011;24468;52.128;9.278;2023-02-04T14:37:40;3.65;;;2.22;;
38717;SDS011;24468;52.128;9.278;2023-02-04T14:40:07;4.72;;;2.53;;
38717;SDS011;24468;52.128;9.278;2023-02-04T14:42:34;2.33;;;1.63;;
38717;SDS011;24468;52.128;9.278;2023-02-04T14:45:00;2.47;;;2.10;;
38717;SDS011;24468;52.128;9.278;2023-02-04T14:47:29;1.10;;;0.95;;
38717;SDS011;24468;52.128;9.278;2023-02-04T14:49:58;4.20;;;2.47;;
38717;SDS011;24468;52.128;9.278;2023-02-04T14:52:24;5.45;;;2.90;;
38717;SDS011;24468;52.128;9.278;2023-02-04T14:54:49;10.38;;;2.08;;
38717;SDS011;24468;52.128;9.278;2023-02-04T14:57:15;2.67;;;1.92;;
38717;SDS011;24468;52.128;9.278;2023-02-04T14:59:41;1.85;;;1.60;;
38717;SDS011;24468;52.128;9.278;2023-02-04T15:02:08;6.53;;;3.65;;